Time,TemperatureF,DewpointF,PressureIn,WindDirection,WindDirectionDegrees,WindSpeedMPH,WindSpeedGustMPH,Humidity,HourlyPrecipIn,Conditions,Clouds,dailyrainin,SoftwareType,DateUTC
2013-04-09 00:00:00,49.9,44.9,29.75,SSW,211,1.1,4.0,83,0.00,RA,,0.00,WeatherDisplay:10.37,2013-04-09 04:00:00,
2013-04-09 00:05:00,50.4,45.1,29.75,SSW,208,1.6,6.0,82,0.00,RA,,0.00,WeatherDisplay:10.37,2013-04-09 04:05:00,
2013-04-09 00:10:00,50.8,45.2,29.74,SSW,207,1.0,6.0,81,0.00,,,0.00,WeatherDisplay:10.37,2013-04-09 04:10:00,
2013-04-09 00:15:00,50.8,44.9,29.74,SSE,163,1.5,6.0,80,0.00,,,0.00,WeatherDisplay:10.37,2013-04-09 04:15:00,
2013-04-09 00:20:00,51.0,45.4,29.74,SSW,195,1.6,6.0,81,0.00,,,0.00,WeatherDisplay:10.37,2013-04-09 04:20:00,
2013-04-09 00:25:00,51.3,45.7,29.74,SE,142,1.9,6.0,81,0.00,,,0.00,WeatherDisplay:10.37,2013-04-09 04:25:00,
2013-04-09 00:30:00,51.8,45.8,29.73,SE,146,1.1,6.0,80,0.00,,,0.00,WeatherDisplay:10.37,2013-04-09 04:30:00,
2013-04-09 00:35:00,52.4,46.4,29.73,South,186,0.8,6.0,80,0.00,,,0.00,WeatherDisplay:10.37,2013-04-09 04:35:00,
2013-04-09 00:40:00,52.9,46.6,29.75,SW,225,1.4,6.0,79,0.00,,,0.00,WeatherDisplay:10.37,2013-04-09 04:40:00,
2013-04-09 00:45:00,53.4,46.7,29.75,SSW,211,0.6,6.0,78,0.00,,,0.00,WeatherDisplay:10.37,2013-04-09 04:45:00,
2013-04-09 00:50:00,53.7,47.3,29.76,West,281,2.6,6.0,79,0.00,,,0.00,WeatherDisplay:10.37,2013-04-09 04:50:00,
2013-04-09 00:55:00,53.9,46.9,29.78,SSW,208,5.8,13.0,77,0.00,,,0.00,WeatherDisplay:10.37,2013-04-09 04:55:00,
2013-04-09 01:00:00,53.6,47.6,29.79,West,259,3.5,15.0,80,0.02,RA,,0.02,WeatherDisplay:10.37,2013-04-09 05:00:00,
2013-04-09 01:05:00,53.2,48.5,29.80,WSW,250,4.5,15.0,84,0.02,RA,,0.02,WeatherDisplay:10.37,2013-04-09 05:05:00,
2013-04-09 01:10:00,53.5,48.8,29.81,SSE,153,2.0,15.0,84,0.03,RA,,0.03,WeatherDisplay:10.37,2013-04-09 05:10:00,
2013-04-09 01:15:00,53.1,48.4,29.80,SW,232,2.1,15.0,84,0.03,RA,,0.03,WeatherDisplay:10.37,2013-04-09 05:15:00,
2013-04-09 01:20:00,52.9,48.5,29.80,WSW,242,2.5,15.0,85,0.03,,,0.03,WeatherDisplay:10.37,2013-04-09 05:20:00,
2013-04-09 01:25:00,52.9,48.5,29.80,WSW,250,1.2,15.0,85,0.03,,,0.03,WeatherDisplay:10.37,2013-04-09 05:25:00,
2013-04-09 01:30:00,52.8,48.7,29.80,West,276,2.0,15.0,86,0.03,,,0.03,WeatherDisplay:10.37,2013-04-09 05:30:00,
2013-04-09 01:35:00,53.0,48.9,29.80,SSW,210,3.4,15.0,86,0.03,,,0.03,WeatherDisplay:10.37,2013-04-09 05:35:00,
2013-04-09 01:40:00,53.4,49.3,29.80,SW,232,3.3,15.0,86,0.04,RA,,0.04,WeatherDisplay:10.37,2013-04-09 05:40:00,
2013-04-09 01:45:00,53.7,49.6,29.80,West,262,4.4,15.0,86,0.04,RA,,0.04,WeatherDisplay:10.37,2013-04-09 05:45:00,
2013-04-09 01:50:00,54.5,50.1,29.81,West,259,6.4,15.0,85,0.04,,,0.04,WeatherDisplay:10.37,2013-04-09 05:50:00,
2013-04-09 01:55:00,55.4,50.3,29.81,WSW,249,7.1,15.0,83,0.04,,,0.04,WeatherDisplay:10.37,2013-04-09 05:55:00,
2013-04-09 02:00:00,56.1,50.3,29.81,SW,222,7.3,15.0,81,0.02,,,0.04,WeatherDisplay:10.37,2013-04-09 06:00:00,
2013-04-09 02:05:00,56.7,50.3,29.81,WSW,245,9.6,18.4,79,0.02,,,0.04,WeatherDisplay:10.37,2013-04-09 06:05:00,
2013-04-09 02:10:00,56.9,50.1,29.82,WSW,243,13.1,20.0,78,0.01,,,0.04,WeatherDisplay:10.37,2013-04-09 06:10:00,
2013-04-09 02:15:00,56.9,50.1,29.82,SSW,203,7.4,20.0,78,0.01,,,0.04,WeatherDisplay:10.37,2013-04-09 06:15:00,
2013-04-09 02:20:00,56.8,50.4,29.82,SW,236,5.2,20.0,79,0.01,,,0.04,WeatherDisplay:10.37,2013-04-09 06:20:00,
2013-04-09 02:25:00,56.6,50.2,29.82,SW,226,8.1,20.0,79,0.01,,,0.04,WeatherDisplay:10.37,2013-04-09 06:25:00,
2013-04-09 02:30:00,56.4,50.0,29.83,WNW,285,8.0,20.0,79,0.01,,,0.04,WeatherDisplay:10.37,2013-04-09 06:30:00,
2013-04-09 02:35:00,56.0,49.2,29.83,West,259,13.7,20.0,78,0.01,,,0.04,WeatherDisplay:10.37,2013-04-09 06:35:00,
2013-04-09 02:40:00,55.5,48.8,29.83,West,274,10.4,21.0,78,0.00,,,0.04,WeatherDisplay:10.37,2013-04-09 06:40:00,
2013-04-09 02:45:00,55.2,48.8,29.83,West,264,10.4,21.0,79,0.00,,,0.04,WeatherDisplay:10.37,2013-04-09 06:45:00,
2013-04-09 02:50:00,55.0,48.6,29.84,West,264,7.0,21.0,79,0.00,,,0.04,WeatherDisplay:10.37,2013-04-09 06:50:00,
2013-04-09 02:55:00,54.8,48.4,29.84,WNW,285,6.9,21.0,79,0.00,,,0.04,WeatherDisplay:10.37,2013-04-09 06:55:00,
2013-04-09 03:00:00,54.8,48.1,29.84,SSE,149,7.6,21.0,78,0.00,,,0.04,WeatherDisplay:10.37,2013-04-09 07:00:00,
2013-04-09 03:05:00,54.6,48.2,29.84,SW,233,9.1,21.0,79,0.00,,,0.04,WeatherDisplay:10.37,2013-04-09 07:05:00,
2013-04-09 03:10:00,54.4,48.0,29.84,SW,218,9.7,21.0,79,0.00,,,0.04,WeatherDisplay:10.37,2013-04-09 07:10:00,
2013-04-09 03:15:00,54.2,47.8,29.84,SW,222,9.0,21.0,79,0.00,,,0.04,WeatherDisplay:10.37,2013-04-09 07:15:00,
2013-04-09 03:20:00,54.1,47.7,29.84,West,266,5.7,21.0,79,0.00,,,0.04,WeatherDisplay:10.37,2013-04-09 07:20:00,
2013-04-09 03:25:00,53.9,47.5,29.84,West,262,12.0,21.0,79,0.00,,,0.04,WeatherDisplay:10.37,2013-04-09 07:25:00,
2013-04-09 03:30:00,53.8,47.4,29.85,West,263,8.1,21.0,79,0.00,,,0.04,WeatherDisplay:10.37,2013-04-09 07:30:00,
2013-04-09 03:35:00,53.7,47.3,29.85,SW,225,6.4,21.0,79,0.00,,,0.04,WeatherDisplay:10.37,2013-04-09 07:35:00,
2013-04-09 03:40:00,53.6,47.2,29.85,SSW,206,7.1,21.0,79,0.00,,,0.04,WeatherDisplay:10.37,2013-04-09 07:40:00,
2013-04-09 03:45:00,53.4,47.0,29.85,West,274,7.4,21.0,79,0.00,,,0.04,WeatherDisplay:10.37,2013-04-09 07:45:00,
2013-04-09 03:50:00,53.3,47.3,29.86,WNW,283,5.7,21.0,80,0.00,,,0.04,WeatherDisplay:10.37,2013-04-09 07:50:00,
2013-04-09 03:55:00,53.1,47.1,29.86,SSW,213,9.3,21.0,80,0.00,,,0.04,WeatherDisplay:10.37,2013-04-09 07:55:00,
2013-04-09 04:00:00,52.9,46.9,29.86,SSW,197,7.6,21.0,80,0.00,,,0.04,WeatherDisplay:10.37,2013-04-09 08:00:00,
2013-04-09 04:05:00,52.7,46.7,29.86,West,280,6.6,21.0,80,0.00,,,0.04,WeatherDisplay:10.37,2013-04-09 08:05:00,
2013-04-09 04:10:00,52.4,46.7,29.87,WSW,248,8.2,21.0,81,0.00,,,0.04,WeatherDisplay:10.37,2013-04-09 08:10:00,
2013-04-09 04:15:00,52.2,46.5,29.87,WSW,257,6.6,21.0,81,0.00,,,0.04,WeatherDisplay:10.37,2013-04-09 08:15:00,
2013-04-09 04:20:00,52.0,46.3,29.88,West,274,8.9,21.0,81,0.00,,,0.04,WeatherDisplay:10.37,2013-04-09 08:20:00,
2013-04-09 04:25:00,51.8,46.5,29.89,SSW,200,8.8,21.0,82,0.00,,,0.04,WeatherDisplay:10.37,2013-04-09 08:25:00,
2013-04-09 04:30:00,51.5,46.2,29.89,WSW,257,2.6,21.0,82,0.00,,,0.04,WeatherDisplay:10.37,2013-04-09 08:30:00,
2013-04-09 04:35:00,51.2,45.9,29.90,WSW,250,6.0,21.0,82,0.00,,,0.04,WeatherDisplay:10.37,2013-04-09 08:35:00,
2013-04-09 04:40:00,51.1,45.8,29.90,SW,222,10.4,21.0,82,0.00,,,0.04,WeatherDisplay:10.37,2013-04-09 08:40:00,
2013-04-09 04:45:00,50.9,45.6,29.90,West,269,10.3,21.0,82,0.00,,,0.04,WeatherDisplay:10.37,2013-04-09 08:45:00,
2013-04-09 04:50:00,50.8,45.5,29.91,SW,222,5.4,21.0,82,0.00,,,0.04,WeatherDisplay:10.37,2013-04-09 08:50:00,
2013-04-09 04:55:00,50.5,45.2,29.91,WNW,287,7.4,21.0,82,0.00,,,0.04,WeatherDisplay:10.37,2013-04-09 08:55:00,
2013-04-09 05:00:00,50.3,45.0,29.91,WNW,300,10.0,21.0,82,0.00,,,0.04,WeatherDisplay:10.37,2013-04-09 09:00:00,
2013-04-09 05:05:00,50.2,44.9,29.92,NW,305,7.9,21.0,82,0.00,,,0.04,WeatherDisplay:10.37,2013-04-09 09:05:00,
2013-04-09 05:10:00,50.1,44.8,29.92,West,267,4.1,21.0,82,0.00,,,0.04,WeatherDisplay:10.37,2013-04-09 09:10:00,
2013-04-09 05:15:00,50.1,45.1,29.92,West,259,5.7,21.0,83,0.00,,,0.04,WeatherDisplay:10.37,2013-04-09 09:15:00,
2013-04-09 05:20:00,50.0,45.0,29.92,WNW,287,4.6,21.0,83,0.00,,,0.04,WeatherDisplay:10.37,2013-04-09 09:20:00,
2013-04-09 05:25:00,49.9,44.6,29.93,West,270,8.6,21.0,82,0.00,,,0.04,WeatherDisplay:10.37,2013-04-09 09:25:00,
2013-04-09 05:30:00,49.8,44.8,29.93,WNW,290,11.4,21.0,83,0.00,,,0.04,WeatherDisplay:10.37,2013-04-09 09:30:00,
2013-04-09 05:35:00,49.7,44.7,29.94,West,276,10.0,21.0,83,0.00,,,0.04,WeatherDisplay:10.37,2013-04-09 09:35:00,
2013-04-09 05:40:00,49.6,44.6,29.94,West,267,6.7,21.0,83,0.00,,,0.04,WeatherDisplay:10.37,2013-04-09 09:40:00,
2013-04-09 05:45:00,49.4,44.8,29.94,WNW,287,3.8,21.0,84,0.00,,,0.04,WeatherDisplay:10.37,2013-04-09 09:45:00,
2013-04-09 05:50:00,49.1,44.2,29.95,WNW,287,9.3,23.0,83,0.00,,,0.04,WeatherDisplay:10.37,2013-04-09 09:50:00,
2013-04-09 05:55:00,48.9,44.0,29.95,West,264,7.1,23.0,83,0.00,,,0.04,WeatherDisplay:10.37,2013-04-09 09:55:00,
2013-04-09 06:00:00,48.8,43.9,29.96,SW,232,8.8,23.0,83,0.00,,,0.04,WeatherDisplay:10.37,2013-04-09 10:00:00,
2013-04-09 06:05:00,48.7,43.8,29.96,West,270,8.6,23.0,83,0.00,,,0.04,WeatherDisplay:10.37,2013-04-09 10:05:00,
2013-04-09 06:10:00,48.6,44.0,29.97,SSW,208,7.0,23.0,84,0.00,,,0.04,WeatherDisplay:10.37,2013-04-09 10:10:00,
2013-04-09 06:15:00,48.4,44.1,29.97,West,262,4.8,23.0,85,0.00,,,0.04,WeatherDisplay:10.37,2013-04-09 10:15:00,
2013-04-09 06:20:00,48.2,43.9,29.97,West,281,6.9,23.0,85,0.00,,,0.04,WeatherDisplay:10.37,2013-04-09 10:20:00,
2013-04-09 06:25:00,48.0,44.0,29.98,West,277,8.7,23.0,86,0.00,,,0.04,WeatherDisplay:10.37,2013-04-09 10:25:00,
2013-04-09 06:30:00,47.9,44.2,29.98,NW,308,7.1,23.0,87,0.00,,,0.04,WeatherDisplay:10.37,2013-04-09 10:30:00,
2013-04-09 06:35:00,47.7,44.0,29.99,West,271,5.2,23.0,87,0.00,,,0.04,WeatherDisplay:10.37,2013-04-09 10:35:00,
2013-04-09 06:40:00,47.5,43.2,30.00,West,266,6.7,23.0,85,0.00,,,0.04,WeatherDisplay:10.37,2013-04-09 10:40:00,
2013-04-09 06:45:00,46.9,42.3,30.01,West,269,7.5,23.0,84,0.00,,,0.04,WeatherDisplay:10.37,2013-04-09 10:45:00,
2013-04-09 06:50:00,46.3,42.0,30.01,WNW,284,4.3,23.0,85,0.00,,,0.04,WeatherDisplay:10.37,2013-04-09 10:50:00,
2013-04-09 06:55:00,45.8,41.2,30.02,WNW,299,5.4,23.0,84,0.00,,,0.04,WeatherDisplay:10.37,2013-04-09 10:55:00,
2013-04-09 07:00:00,45.5,40.9,30.02,WSW,256,2.8,23.0,84,0.00,,,0.04,WeatherDisplay:10.37,2013-04-09 11:00:00,
2013-04-09 07:05:00,45.4,41.2,30.02,West,274,3.1,23.0,85,0.00,CLR,,0.04,WeatherDisplay:10.37,2013-04-09 11:05:00,
2013-04-09 07:10:00,45.2,40.7,30.03,West,264,5.1,23.0,84,0.00,CLR,,0.04,WeatherDisplay:10.37,2013-04-09 11:10:00,
2013-04-09 07:15:00,45.1,40.6,30.04,WSW,242,4.3,23.0,84,0.00,CLR,,0.04,WeatherDisplay:10.37,2013-04-09 11:15:00,
2013-04-09 07:20:00,45.0,40.5,30.04,WNW,298,4.0,23.0,84,0.00,CLR,,0.04,WeatherDisplay:10.37,2013-04-09 11:20:00,
2013-04-09 07:25:00,44.9,40.7,30.04,WNW,299,2.8,23.0,85,0.00,CLR,,0.04,WeatherDisplay:10.37,2013-04-09 11:25:00,
2013-04-09 07:30:00,44.9,40.4,30.05,WNW,295,4.5,23.0,84,0.00,CLR,,0.04,WeatherDisplay:10.37,2013-04-09 11:30:00,
2013-04-09 07:35:00,44.9,40.4,30.05,NW,318,5.1,23.0,84,0.00,CLR,,0.04,WeatherDisplay:10.37,2013-04-09 11:35:00,
2013-04-09 07:40:00,44.8,40.6,30.05,SW,232,3.6,23.0,85,0.00,CLR,,0.04,WeatherDisplay:10.37,2013-04-09 11:40:00,
2013-04-09 07:45:00,44.8,40.3,30.06,WNW,285,3.1,23.0,84,0.00,CLR,,0.04,WeatherDisplay:10.37,2013-04-09 11:45:00,
2013-04-09 07:50:00,44.8,40.3,30.06,West,273,1.6,23.0,84,0.00,CLR,,0.04,WeatherDisplay:10.37,2013-04-09 11:50:00,
2013-04-09 07:55:00,44.9,40.4,30.07,West,263,2.5,23.0,84,0.00,CLR,,0.04,WeatherDisplay:10.37,2013-04-09 11:55:00,
2013-04-09 08:00:00,44.8,40.3,30.07,NW,319,5.2,23.0,84,0.00,CLR,,0.04,WeatherDisplay:10.37,2013-04-09 12:00:00,
2013-04-09 08:05:00,44.8,40.3,30.07,NW,311,3.6,23.0,84,0.00,CLR,,0.04,WeatherDisplay:10.37,2013-04-09 12:05:00,
2013-04-09 08:10:00,44.7,40.5,30.07,NW,304,2.5,23.0,85,0.00,CLR,,0.04,WeatherDisplay:10.37,2013-04-09 12:10:00,
2013-04-09 08:15:00,44.7,40.2,30.07,WNW,283,2.9,23.0,84,0.00,CLR,,0.04,WeatherDisplay:10.37,2013-04-09 12:15:00,
2013-04-09 08:20:00,44.6,40.1,30.07,NW,305,4.4,23.0,84,0.00,CLR,,0.04,WeatherDisplay:10.37,2013-04-09 12:20:00,
2013-04-09 08:25:00,44.6,40.1,30.07,WNW,292,1.2,23.0,84,0.00,CLR,,0.04,WeatherDisplay:10.37,2013-04-09 12:25:00,
2013-04-09 08:30:00,44.7,40.2,30.07,West,276,2.3,23.0,84,0.00,CLR,,0.04,WeatherDisplay:10.37,2013-04-09 12:30:00,
2013-04-09 08:35:00,44.7,40.5,30.08,West,269,2.2,23.0,85,0.00,CLR,,0.04,WeatherDisplay:10.37,2013-04-09 12:35:00,
2013-04-09 08:40:00,44.6,40.1,30.08,NW,304,1.3,23.0,84,0.00,CLR,,0.04,WeatherDisplay:10.37,2013-04-09 12:40:00,
2013-04-09 08:45:00,44.6,40.1,30.08,WNW,295,3.7,23.0,84,0.00,CLR,,0.04,WeatherDisplay:10.37,2013-04-09 12:45:00,
2013-04-09 08:50:00,44.6,40.1,30.08,WNW,297,5.5,23.0,84,0.00,CLR,,0.04,WeatherDisplay:10.37,2013-04-09 12:50:00,
2013-04-09 08:55:00,44.7,40.2,30.08,WNW,293,1.8,23.0,84,0.00,CLR,,0.04,WeatherDisplay:10.37,2013-04-09 12:55:00,
2013-04-09 09:00:00,44.6,40.1,30.08,WNW,294,3.2,23.0,84,0.00,CLR,,0.04,WeatherDisplay:10.37,2013-04-09 13:00:00,
2013-04-09 09:05:00,44.6,40.1,30.08,WNW,284,5.2,23.0,84,0.00,CLR,,0.04,WeatherDisplay:10.37,2013-04-09 13:05:00,
2013-04-09 09:10:00,44.6,40.1,30.09,West,273,5.9,23.0,84,0.00,CLR,,0.04,WeatherDisplay:10.37,2013-04-09 13:10:00,
2013-04-09 09:15:00,44.7,40.2,30.09,WNW,302,3.1,23.0,84,0.00,CLR,,0.04,WeatherDisplay:10.37,2013-04-09 13:15:00,
2013-04-09 09:20:00,44.6,40.1,30.09,WSW,257,4.8,23.0,84,0.00,CLR,,0.04,WeatherDisplay:10.37,2013-04-09 13:20:00,
2013-04-09 09:25:00,44.7,40.2,30.09,WNW,302,3.4,23.0,84,0.00,CLR,,0.04,WeatherDisplay:10.37,2013-04-09 13:25:00,
2013-04-09 09:30:00,44.7,40.2,30.09,West,276,1.6,23.0,84,0.00,CLR,,0.04,WeatherDisplay:10.37,2013-04-09 13:30:00,
2013-04-09 09:35:00,44.8,40.3,30.09,West,273,2.9,23.0,84,0.00,CLR,,0.04,WeatherDisplay:10.37,2013-04-09 13:35:00,
2013-04-09 09:40:00,44.7,40.2,30.09,NNW,330,2.9,23.0,84,0.00,CLR,,0.04,WeatherDisplay:10.37,2013-04-09 13:40:00,
2013-04-09 09:45:00,44.7,40.2,30.10,WNW,295,5.2,23.0,84,0.00,CLR,,0.04,WeatherDisplay:10.37,2013-04-09 13:45:00,
2013-04-09 09:50:00,44.6,40.1,30.10,West,273,1.8,23.0,84,0.00,CLR,,0.04,WeatherDisplay:10.37,2013-04-09 13:50:00,
2013-04-09 09:55:00,44.5,40.0,30.10,NNW,329,4.5,23.0,84,0.00,CLR,,0.04,WeatherDisplay:10.37,2013-04-09 13:55:00,
2013-04-09 10:00:00,44.6,40.4,30.10,West,269,1.7,23.0,85,0.00,CLR,,0.04,WeatherDisplay:10.37,2013-04-09 14:00:00,
2013-04-09 10:05:00,44.7,40.2,30.10,WNW,297,3.0,23.0,84,0.00,CLR,,0.04,WeatherDisplay:10.37,2013-04-09 14:05:00,
2013-04-09 10:10:00,44.8,40.3,30.10,WSW,246,1.3,23.0,84,0.00,CLR,,0.04,WeatherDisplay:10.37,2013-04-09 14:10:00,
2013-04-09 10:15:00,45.0,40.1,30.11,WSW,253,1.0,23.0,83,0.00,CLR,,0.04,WeatherDisplay:10.37,2013-04-09 14:15:00,
2013-04-09 10:20:00,45.2,40.7,30.11,West,260,2.4,23.0,84,0.00,CLR,,0.04,WeatherDisplay:10.37,2013-04-09 14:20:00,
2013-04-09 10:25:00,45.4,40.5,30.11,WNW,290,1.3,23.0,83,0.00,CLR,,0.04,WeatherDisplay:10.37,2013-04-09 14:25:00,
2013-04-09 10:30:00,45.6,40.7,30.10,WSW,245,2.5,23.0,83,0.00,CLR,,0.04,WeatherDisplay:10.37,2013-04-09 14:30:00,
2013-04-09 10:35:00,45.7,40.5,30.10,WNW,290,1.7,23.0,82,0.00,CLR,,0.04,WeatherDisplay:10.37,2013-04-09 14:35:00,
2013-04-09 10:40:00,46.3,41.1,30.10,SW,220,2.0,23.0,82,0.00,CLR,,0.04,WeatherDisplay:10.37,2013-04-09 14:40:00,
2013-04-09 10:45:00,46.5,41.0,30.10,West,262,1.7,23.0,81,0.00,CLR,,0.04,WeatherDisplay:10.37,2013-04-09 14:45:00,
2013-04-09 10:50:00,46.9,41.1,30.10,West,260,3.6,23.0,80,0.00,CLR,,0.04,WeatherDisplay:10.37,2013-04-09 14:50:00,
2013-04-09 10:55:00,47.3,41.4,30.10,West,266,1.1,23.0,80,0.00,CLR,,0.04,WeatherDisplay:10.37,2013-04-09 14:55:00,
2013-04-09 11:00:00,47.5,41.3,30.10,West,281,1.5,23.0,79,0.00,CLR,,0.04,WeatherDisplay:10.37,2013-04-09 15:00:00,
2013-04-09 11:05:00,47.6,41.1,30.11,West,264,1.9,23.0,78,0.00,,,0.04,WeatherDisplay:10.37,2013-04-09 15:05:00,
2013-04-09 11:10:00,47.9,41.7,30.11,WNW,300,0.7,23.0,79,0.00,,,0.04,WeatherDisplay:10.37,2013-04-09 15:10:00,
2013-04-09 11:15:00,48.4,41.9,30.11,SW,224,2.1,23.0,78,0.00,,,0.04,WeatherDisplay:10.37,2013-04-09 15:15:00,
2013-04-09 11:21:00,48.7,41.8,30.11,WNW,301,1.8,23.0,77,0.00,,,0.04,WeatherDisplay:10.37,2013-04-09 15:21:00,
2013-04-09 11:26:00,48.9,42.0,30.11,WNW,295,2.4,23.0,77,0.00,,,0.04,WeatherDisplay:10.37,2013-04-09 15:26:00,
2013-04-09 11:31:00,49.4,42.1,30.11,WNW,301,1.5,23.0,76,0.00,,,0.04,WeatherDisplay:10.37,2013-04-09 15:31:00,
2013-04-09 11:36:00,50.1,43.5,30.11,NW,322,2.7,23.0,78,0.00,,,0.04,WeatherDisplay:10.37,2013-04-09 15:36:00,
2013-04-09 11:41:00,49.7,42.8,30.11,North,9,1.7,23.0,77,0.00,,,0.04,WeatherDisplay:10.37,2013-04-09 15:41:00,
2013-04-09 11:46:00,49.6,42.7,30.10,NW,305,2.2,23.0,77,0.00,,,0.04,WeatherDisplay:10.37,2013-04-09 15:46:00,
2013-04-09 11:51:00,49.3,42.4,30.10,NW,316,1.7,23.0,77,0.00,,,0.04,WeatherDisplay:10.37,2013-04-09 15:51:00,
2013-04-09 11:56:00,49.6,42.3,30.10,NNE,20,2.1,23.0,76,0.00,,,0.04,WeatherDisplay:10.37,2013-04-09 15:56:00,
2013-04-09 12:01:00,49.9,42.6,30.10,NNW,343,1.5,23.0,76,0.00,,,0.04,WeatherDisplay:10.37,2013-04-09 16:01:00,
2013-04-09 12:06:00,50.4,43.1,30.10,NW,308,1.3,23.0,76,0.00,,,0.04,WeatherDisplay:10.37,2013-04-09 16:06:00,
2013-04-09 12:11:00,50.7,43.1,30.10,NE,49,3.7,23.0,75,0.00,,,0.04,WeatherDisplay:10.37,2013-04-09 16:11:00,
2013-04-09 12:16:00,50.5,43.2,30.09,NW,316,3.0,23.0,76,0.00,,,0.04,WeatherDisplay:10.37,2013-04-09 16:16:00,
2013-04-09 12:21:00,51.0,44.0,30.09,NW,313,1.4,23.0,77,0.00,,,0.04,WeatherDisplay:10.37,2013-04-09 16:21:00,
2013-04-09 12:26:00,51.5,43.1,30.09,WNW,302,1.4,23.0,73,0.00,,,0.04,WeatherDisplay:10.37,2013-04-09 16:26:00,
2013-04-09 12:31:00,51.9,43.5,30.09,NW,311,1.9,23.0,73,0.00,,,0.04,WeatherDisplay:10.37,2013-04-09 16:31:00,
2013-04-09 12:36:00,51.5,43.1,30.09,WNW,295,3.1,23.0,73,0.00,,,0.04,WeatherDisplay:10.37,2013-04-09 16:36:00,
2013-04-09 12:41:00,50.8,42.5,30.09,WNW,290,2.3,23.0,73,0.00,,,0.04,WeatherDisplay:10.37,2013-04-09 16:41:00,
2013-04-09 12:46:00,50.7,42.7,30.09,NW,305,1.6,23.0,74,0.00,,,0.04,WeatherDisplay:10.37,2013-04-09 16:46:00,
2013-04-09 12:51:00,51.2,43.9,30.08,NNW,343,1.6,23.0,76,0.00,,,0.04,WeatherDisplay:10.37,2013-04-09 16:51:00,
2013-04-09 12:56:00,51.6,43.6,30.08,NE,44,3.0,23.0,74,0.00,,,0.04,WeatherDisplay:10.37,2013-04-09 16:56:00,
2013-04-09 13:01:00,51.5,43.8,30.08,NW,315,1.9,23.0,75,0.00,,,0.04,WeatherDisplay:10.37,2013-04-09 17:01:00,
2013-04-09 13:06:00,52.1,43.7,30.08,NE,44,1.5,23.0,73,0.00,,,0.04,WeatherDisplay:10.37,2013-04-09 17:06:00,
2013-04-09 13:11:00,52.4,43.3,30.08,West,278,0.9,23.0,71,0.00,,,0.04,WeatherDisplay:10.37,2013-04-09 17:11:00,
2013-04-09 13:16:00,52.2,43.1,30.07,NE,53,2.1,23.0,71,0.00,,,0.04,WeatherDisplay:10.37,2013-04-09 17:16:00,
2013-04-09 13:21:00,52.0,43.3,30.07,East,86,2.2,23.0,72,0.00,,,0.04,WeatherDisplay:10.37,2013-04-09 17:21:00,
2013-04-09 13:26:00,52.3,43.2,30.07,ESE,119,1.0,23.0,71,0.00,,,0.04,WeatherDisplay:10.37,2013-04-09 17:26:00,
2013-04-09 13:31:00,52.1,43.0,30.06,ENE,65,2.9,23.0,71,0.00,,,0.04,WeatherDisplay:10.37,2013-04-09 17:31:00,
2013-04-09 13:36:00,52.0,43.3,30.06,NNW,340,3.5,23.0,72,0.00,,,0.04,WeatherDisplay:10.37,2013-04-09 17:36:00,
2013-04-09 13:41:00,52.1,43.3,30.06,NE,39,3.7,23.0,72,0.00,,,0.04,WeatherDisplay:10.37,2013-04-09 17:41:00,
2013-04-09 13:46:00,52.1,43.3,30.05,NW,311,1.5,23.0,72,0.00,,,0.04,WeatherDisplay:10.37,2013-04-09 17:46:00,
2013-04-09 13:51:00,52.5,44.4,30.05,NNE,18,2.3,23.0,74,0.00,,,0.04,WeatherDisplay:10.37,2013-04-09 17:51:00,
2013-04-09 13:56:00,52.4,44.0,30.05,NNW,330,1.6,23.0,73,0.00,,,0.04,WeatherDisplay:10.37,2013-04-09 17:56:00,
2013-04-09 14:01:00,53.1,43.6,30.05,NW,308,2.1,23.0,70,0.00,,,0.04,WeatherDisplay:10.37,2013-04-09 18:01:00,
2013-04-09 14:06:00,52.8,43.7,30.05,NNE,32,2.0,23.0,71,0.00,,,0.04,WeatherDisplay:10.37,2013-04-09 18:06:00,
2013-04-09 14:11:00,52.6,43.1,30.05,NNW,340,2.4,23.0,70,0.00,,,0.04,WeatherDisplay:10.37,2013-04-09 18:11:00,
2013-04-09 14:16:00,53.0,43.5,30.05,NW,308,2.7,23.0,70,0.00,,,0.04,WeatherDisplay:10.37,2013-04-09 18:16:00,
2013-04-09 14:21:00,53.2,44.0,30.05,NNE,12,3.4,23.0,71,0.00,,,0.04,WeatherDisplay:10.37,2013-04-09 18:21:00,
2013-04-09 14:27:00,53.7,45.2,30.05,NW,311,2.0,23.0,73,0.00,,,0.04,WeatherDisplay:10.37,2013-04-09 18:27:00,
2013-04-09 14:32:00,53.9,44.0,30.05,NE,34,1.2,23.0,69,0.00,,,0.04,WeatherDisplay:10.37,2013-04-09 18:32:00,
2013-04-09 14:37:00,54.1,43.8,30.04,NNW,337,1.3,23.0,68,0.00,,,0.04,WeatherDisplay:10.37,2013-04-09 18:37:00,
2013-04-09 14:42:00,54.1,44.5,30.04,ENE,60,0.9,23.0,70,0.00,,,0.04,WeatherDisplay:10.37,2013-04-09 18:42:00,
2013-04-09 14:47:00,54.2,43.5,30.04,NE,44,4.0,23.0,67,0.00,,,0.04,WeatherDisplay:10.37,2013-04-09 18:47:00,
2013-04-09 14:52:00,54.0,43.7,30.04,ENE,62,2.6,23.0,68,0.00,,,0.04,WeatherDisplay:10.37,2013-04-09 18:52:00,
2013-04-09 14:57:00,54.4,44.1,30.05,NW,322,0.1,23.0,68,0.00,,,0.04,WeatherDisplay:10.37,2013-04-09 18:57:00,
2013-04-09 15:02:00,54.6,43.9,30.04,ENE,68,2.3,23.0,67,0.00,,,0.04,WeatherDisplay:10.37,2013-04-09 19:02:00,
2013-04-09 15:07:00,54.7,44.3,30.04,NNE,27,0.8,23.0,68,0.00,,,0.04,WeatherDisplay:10.37,2013-04-09 19:07:00,
2013-04-09 15:12:00,54.9,44.1,30.03,ENE,64,3.0,23.0,67,0.00,,,0.04,WeatherDisplay:10.37,2013-04-09 19:12:00,
2013-04-09 15:17:00,55.2,44.0,30.03,NNW,338,2.4,23.0,66,0.00,,,0.04,WeatherDisplay:10.37,2013-04-09 19:17:00,
2013-04-09 15:22:00,55.3,44.5,30.03,NE,37,2.8,23.0,67,0.00,,,0.04,WeatherDisplay:10.37,2013-04-09 19:22:00,
2013-04-09 15:27:00,55.3,43.7,30.03,NNE,25,2.6,23.0,65,0.00,,,0.04,WeatherDisplay:10.37,2013-04-09 19:27:00,
2013-04-09 15:32:00,55.0,45.0,30.02,NNE,15,1.9,23.0,69,0.00,,,0.04,WeatherDisplay:10.37,2013-04-09 19:32:00,
2013-04-09 15:37:00,54.8,44.4,30.03,NNW,335,2.7,23.0,68,0.00,,,0.04,WeatherDisplay:10.37,2013-04-09 19:37:00,
2013-04-09 15:42:00,54.7,44.3,30.02,NE,50,2.7,23.0,68,0.00,,,0.04,WeatherDisplay:10.37,2013-04-09 19:42:00,
2013-04-09 15:47:00,54.8,44.4,30.02,NE,34,1.6,23.0,68,0.00,,,0.04,WeatherDisplay:10.37,2013-04-09 19:47:00,
2013-04-09 15:52:00,54.4,43.3,30.01,NNE,29,2.0,23.0,66,0.00,,,0.04,WeatherDisplay:10.37,2013-04-09 19:52:00,
2013-04-09 15:57:00,53.9,43.2,30.01,NNE,18,3.0,23.0,67,0.00,,,0.04,WeatherDisplay:10.37,2013-04-09 19:57:00,
2013-04-09 16:02:00,53.7,43.8,30.00,North,5,2.5,23.0,69,0.00,,,0.04,WeatherDisplay:10.37,2013-04-09 20:02:00,
2013-04-09 16:07:00,53.8,43.5,30.00,NNE,15,2.3,23.0,68,0.00,,,0.04,WeatherDisplay:10.37,2013-04-09 20:07:00,
2013-04-09 16:12:00,54.0,44.4,30.00,NNW,328,2.5,23.0,70,0.00,,,0.04,WeatherDisplay:10.37,2013-04-09 20:12:00,
2013-04-09 16:17:00,53.6,43.3,30.00,NE,44,2.4,23.0,68,0.00,,,0.04,WeatherDisplay:10.37,2013-04-09 20:17:00,
2013-04-09 16:22:00,53.1,43.6,30.00,ENE,63,2.3,23.0,70,0.00,,,0.04,WeatherDisplay:10.37,2013-04-09 20:22:00,
2013-04-09 16:27:00,52.9,43.0,30.00,ENE,68,3.1,23.0,69,0.00,,,0.04,WeatherDisplay:10.37,2013-04-09 20:27:00,
2013-04-09 16:32:00,52.2,42.7,29.99,NE,44,1.5,23.0,70,0.00,,,0.04,WeatherDisplay:10.37,2013-04-09 20:32:00,
2013-04-09 16:37:00,51.8,42.7,29.99,NNE,15,2.2,23.0,71,0.00,,,0.04,WeatherDisplay:10.37,2013-04-09 20:37:00,
2013-04-09 16:42:00,51.3,42.6,30.00,NNW,343,2.5,23.0,72,0.00,,,0.04,WeatherDisplay:10.37,2013-04-09 20:42:00,
2013-04-09 16:47:00,51.0,42.3,30.00,North,5,1.2,23.0,72,0.00,,,0.04,WeatherDisplay:10.37,2013-04-09 20:47:00,
2013-04-09 16:52:00,50.5,42.2,30.00,WNW,287,1.4,23.0,73,0.00,,,0.04,WeatherDisplay:10.37,2013-04-09 20:52:00,
2013-04-09 16:57:00,50.1,42.1,30.01,NE,43,1.0,23.0,74,0.00,,,0.04,WeatherDisplay:10.37,2013-04-09 20:57:00,
2013-04-09 17:02:00,49.9,41.9,30.01,ENE,58,1.4,23.0,74,0.00,,,0.04,WeatherDisplay:10.37,2013-04-09 21:02:00,
2013-04-09 17:07:00,49.4,41.5,30.02,NNW,340,1.2,23.0,74,0.00,,,0.04,WeatherDisplay:10.37,2013-04-09 21:07:00,
2013-04-09 17:12:00,49.1,41.9,30.02,ENE,74,0.9,23.0,76,0.00,,,0.04,WeatherDisplay:10.37,2013-04-09 21:12:00,
2013-04-09 17:17:00,48.7,41.5,30.03,WNW,290,0.7,23.0,76,0.00,,,0.04,WeatherDisplay:10.37,2013-04-09 21:17:00,
2013-04-09 17:22:00,48.4,41.2,30.03,NNW,346,1.5,23.0,76,0.00,,,0.04,WeatherDisplay:10.37,2013-04-09 21:22:00,
2013-04-09 17:27:00,48.1,41.2,30.03,NNE,33,1.2,23.0,77,0.00,,,0.04,WeatherDisplay:10.37,2013-04-09 21:27:00,
2013-04-09 17:32:00,47.8,41.3,30.02,NNW,330,0.7,23.0,78,0.00,,,0.04,WeatherDisplay:10.37,2013-04-09 21:32:00,
2013-04-09 17:37:00,47.5,41.3,30.03,North,6,2.4,23.0,79,0.00,,,0.04,WeatherDisplay:10.37,2013-04-09 21:37:00,
2013-04-09 17:42:00,47.2,41.7,30.02,NW,323,2.4,23.0,81,0.00,,,0.04,WeatherDisplay:10.37,2013-04-09 21:42:00,
2013-04-09 17:47:00,46.8,41.6,30.02,NNE,27,2.3,23.0,82,0.00,,,0.04,WeatherDisplay:10.37,2013-04-09 21:47:00,
2013-04-09 17:52:00,46.5,42.2,30.02,NE,48,0.7,23.0,85,0.01,RA,,0.05,WeatherDisplay:10.37,2013-04-09 21:52:00,
2013-04-09 17:57:00,46.3,42.0,30.02,NNE,15,0.9,23.0,85,0.01,RA,,0.05,WeatherDisplay:10.37,2013-04-09 21:57:00,
2013-04-09 18:02:00,46.1,41.8,30.02,NE,43,1.9,23.0,85,0.01,,,0.05,WeatherDisplay:10.37,2013-04-09 22:02:00,
2013-04-09 18:07:00,45.8,41.5,30.01,North,359,1.0,23.0,85,0.01,,,0.05,WeatherDisplay:10.37,2013-04-09 22:07:00,
2013-04-09 18:12:00,45.5,41.3,30.01,NE,39,1.8,23.0,85,0.01,,,0.05,WeatherDisplay:10.37,2013-04-09 22:12:00,
2013-04-09 18:17:00,45.5,41.6,30.00,ENE,65,1.8,23.0,86,0.01,,,0.05,WeatherDisplay:10.37,2013-04-09 22:17:00,
2013-04-09 18:22:00,45.3,41.1,30.00,NE,41,1.2,23.0,85,0.01,,,0.05,WeatherDisplay:10.37,2013-04-09 22:22:00,
2013-04-09 18:27:00,45.1,41.2,30.00,NE,37,0.6,23.0,86,0.01,,,0.05,WeatherDisplay:10.37,2013-04-09 22:27:00,
2013-04-09 18:32:00,44.9,41.0,30.02,NW,315,1.2,23.0,86,0.01,,,0.05,WeatherDisplay:10.37,2013-04-09 22:32:00,
2013-04-09 18:37:00,44.8,40.9,30.02,NNE,29,1.1,23.0,86,0.01,,,0.05,WeatherDisplay:10.37,2013-04-09 22:37:00,
2013-04-09 18:42:00,44.5,40.6,30.01,ENE,60,2.2,23.0,86,0.01,,,0.05,WeatherDisplay:10.37,2013-04-09 22:42:00,
2013-04-09 18:47:00,44.3,40.4,30.00,ENE,65,2.3,23.0,86,0.01,,,0.05,WeatherDisplay:10.37,2013-04-09 22:47:00,
2013-04-09 18:52:00,43.8,40.2,30.00,ENE,65,1.7,23.0,87,0.00,,,0.05,WeatherDisplay:10.37,2013-04-09 22:52:00,
2013-04-09 18:57:00,43.6,40.3,30.01,NNE,29,0.4,23.0,88,0.00,,,0.05,WeatherDisplay:10.37,2013-04-09 22:57:00,
2013-04-09 19:02:00,43.5,40.5,30.03,NW,315,1.0,23.0,89,0.00,,,0.05,WeatherDisplay:10.37,2013-04-09 23:02:00,
2013-04-09 19:07:00,43.5,40.5,30.01,NE,36,1.6,23.0,89,0.00,,,0.05,WeatherDisplay:10.37,2013-04-09 23:07:00,
2013-04-09 19:12:00,43.3,40.3,30.00,ENE,78,3.2,23.0,89,0.01,RA,,0.06,WeatherDisplay:10.37,2013-04-09 23:12:00,
2013-04-09 19:17:00,43.2,40.5,30.01,North,360,1.3,23.0,90,0.01,RA,,0.06,WeatherDisplay:10.37,2013-04-09 23:17:00,
2013-04-09 19:22:00,43.1,40.4,30.01,NE,54,1.3,23.0,90,0.01,,,0.06,WeatherDisplay:10.37,2013-04-09 23:22:00,
2013-04-09 19:27:00,43.0,40.6,30.01,NNE,15,1.1,23.0,91,0.01,,,0.06,WeatherDisplay:10.37,2013-04-09 23:27:00,
2013-04-09 19:32:00,42.9,40.5,30.00,NE,49,2.3,23.0,91,0.01,,,0.06,WeatherDisplay:10.37,2013-04-09 23:32:00,
2013-04-09 19:37:00,42.8,40.1,30.01,NE,51,1.2,23.0,90,0.01,,,0.06,WeatherDisplay:10.37,2013-04-09 23:37:00,
2013-04-09 19:42:00,42.8,40.4,30.01,NNE,15,0.5,23.0,91,0.01,,,0.06,WeatherDisplay:10.37,2013-04-09 23:42:00,
2013-04-09 19:47:00,42.8,40.4,30.01,WNW,302,0.4,23.0,91,0.01,,,0.06,WeatherDisplay:10.37,2013-04-09 23:47:00,
2013-04-09 19:52:00,42.7,40.3,30.01,ESE,122,0.0,23.0,91,0.01,,,0.06,WeatherDisplay:10.37,2013-04-09 23:52:00,
2013-04-09 19:57:00,42.7,40.3,30.01,East,88,0.0,23.0,91,0.02,RA,,0.07,WeatherDisplay:10.37,2013-04-09 23:57:00,
2013-04-09 20:02:00,42.8,40.4,30.00,ENE,75,0.9,23.0,91,0.03,RA,,0.08,WeatherDisplay:10.37,2013-04-10 00:02:00,
2013-04-09 20:07:00,42.8,40.4,30.00,ENE,74,0.0,23.0,91,0.04,RA,,0.09,WeatherDisplay:10.37,2013-04-10 00:07:00,
2013-04-09 20:12:00,42.9,40.5,30.00,ENE,72,0.5,23.0,91,0.04,RA,,0.10,WeatherDisplay:10.37,2013-04-10 00:12:00,
2013-04-09 20:17:00,42.9,40.7,29.99,ENE,65,0.4,23.0,92,0.05,RA,,0.11,WeatherDisplay:10.37,2013-04-10 00:17:00,
2013-04-09 20:22:00,42.9,40.7,29.99,ENE,65,0.0,23.0,92,0.05,RA,,0.12,WeatherDisplay:10.37,2013-04-10 00:22:00,
2013-04-09 20:27:00,42.9,40.7,29.99,ENE,58,1.0,23.0,92,0.07,RA,,0.13,WeatherDisplay:10.37,2013-04-10 00:27:00,
2013-04-09 20:32:00,43.0,40.8,29.99,ENE,63,0.1,23.0,92,0.07,RA,,0.13,WeatherDisplay:10.37,2013-04-10 00:32:00,
2013-04-09 20:37:00,43.0,40.8,29.99,ENE,57,0.7,23.0,92,0.08,RA,,0.14,WeatherDisplay:10.37,2013-04-10 00:37:00,
2013-04-09 20:42:00,43.0,40.8,29.97,NE,49,2.3,23.0,92,0.08,RA,,0.15,WeatherDisplay:10.37,2013-04-10 00:42:00,
2013-04-09 20:47:00,43.0,40.8,29.98,ENE,57,0.2,23.0,92,0.10,RA,,0.16,WeatherDisplay:10.37,2013-04-10 00:47:00,
2013-04-09 20:52:00,43.0,41.1,29.98,SSW,206,0.2,23.0,93,0.10,RA,,0.17,WeatherDisplay:10.37,2013-04-10 00:52:00,
2013-04-09 20:57:00,43.1,41.2,29.98,ESE,120,0.3,23.0,93,0.10,RA,,0.17,WeatherDisplay:10.37,2013-04-10 00:57:00,
2013-04-09 21:02:00,43.2,41.3,29.97,East,94,0.7,23.0,93,0.09,RA,,0.17,WeatherDisplay:10.37,2013-04-10 01:02:00,
2013-04-09 21:07:00,43.3,41.4,29.97,East,96,0.5,23.0,93,0.09,RA,,0.18,WeatherDisplay:10.37,2013-04-10 01:07:00,
2013-04-09 21:12:00,43.3,41.4,29.96,East,92,1.6,23.0,93,0.08,RA,,0.18,WeatherDisplay:10.37,2013-04-10 01:12:00,
2013-04-09 21:17:00,43.4,41.5,29.95,SE,128,0.6,23.0,93,0.07,,,0.19,WeatherDisplay:10.37,2013-04-10 01:17:00,
2013-04-09 21:22:00,43.5,41.6,29.95,East,90,1.4,23.0,93,0.08,RA,,0.19,WeatherDisplay:10.37,2013-04-10 01:22:00,
2013-04-09 21:27:00,43.6,42.0,29.95,East,100,0.9,23.0,94,0.06,RA,,0.19,WeatherDisplay:10.37,2013-04-10 01:27:00,
2013-04-09 21:32:00,43.7,42.1,29.94,SE,132,2.0,23.0,94,0.06,,,0.19,WeatherDisplay:10.37,2013-04-10 01:32:00,
2013-04-09 21:37:00,43.9,42.3,29.94,East,100,1.1,23.0,94,0.05,,,0.19,WeatherDisplay:10.37,2013-04-10 01:37:00,
2013-04-09 21:42:00,44.1,42.5,29.95,WSW,248,0.5,23.0,94,0.05,,,0.19,WeatherDisplay:10.37,2013-04-10 01:42:00,
2013-04-09 21:47:00,44.2,42.6,29.96,SSE,165,0.3,23.0,94,0.03,,,0.19,WeatherDisplay:10.37,2013-04-10 01:47:00,
2013-04-09 21:52:00,44.4,42.8,29.97,ESE,110,0.1,23.0,94,0.04,RA,,0.20,WeatherDisplay:10.37,2013-04-10 01:52:00,
2013-04-09 21:57:00,44.5,42.9,29.97,SSE,166,0.7,23.0,94,0.04,RA,,0.21,WeatherDisplay:10.37,2013-04-10 01:57:00,
2013-04-09 22:02:00,44.6,43.0,29.99,SW,222,0.6,23.0,94,0.06,RA,,0.23,WeatherDisplay:10.37,2013-04-10 02:02:00,
2013-04-09 22:07:00,44.7,43.1,30.00,West,278,1.6,23.0,94,0.07,RA,,0.26,WeatherDisplay:10.37,2013-04-10 02:07:00,
2013-04-09 22:12:00,44.9,43.3,30.00,NNE,33,0.0,23.0,94,0.12,RA,,0.31,WeatherDisplay:10.37,2013-04-10 02:12:00,
2013-04-09 22:17:00,44.8,43.2,29.96,ENE,58,2.3,23.0,94,0.18,RA,,0.37,WeatherDisplay:10.37,2013-04-10 02:17:00,
2013-04-09 22:22:00,44.7,43.1,29.96,ENE,65,1.6,23.0,94,0.21,RA,,0.41,WeatherDisplay:10.37,2013-04-10 02:22:00,
2013-04-09 22:27:00,44.7,43.1,29.96,SSE,166,0.8,23.0,94,0.25,RA,,0.44,WeatherDisplay:10.37,2013-04-10 02:27:00,
2013-04-09 22:32:00,44.6,43.0,29.97,SSE,163,0.6,23.0,94,0.28,RA,,0.47,WeatherDisplay:10.37,2013-04-10 02:32:00,
2013-04-09 22:37:00,44.6,43.0,29.95,ENE,57,2.3,23.0,94,0.30,RA,,0.50,WeatherDisplay:10.37,2013-04-10 02:37:00,
2013-04-09 22:42:00,44.7,43.1,29.95,East,89,0.4,23.0,94,0.32,RA,,0.52,WeatherDisplay:10.37,2013-04-10 02:42:00,
2013-04-09 22:47:00,44.8,43.2,29.94,ENE,68,1.6,23.0,94,0.36,RA,,0.55,WeatherDisplay:10.37,2013-04-10 02:47:00,
2013-04-09 22:52:00,44.8,43.2,29.94,East,85,1.5,23.0,94,0.39,RA,,0.59,WeatherDisplay:10.37,2013-04-10 02:52:00,
2013-04-09 22:57:00,44.9,43.3,29.93,East,101,2.9,23.0,94,0.41,RA,,0.62,WeatherDisplay:10.37,2013-04-10 02:57:00,
2013-04-09 23:02:00,45.0,43.4,29.94,SE,132,0.0,23.0,94,0.41,RA,,0.65,WeatherDisplay:10.37,2013-04-10 03:02:00,
2013-04-09 23:07:00,45.1,43.8,29.93,ENE,61,2.1,23.0,95,0.41,RA,,0.67,WeatherDisplay:10.37,2013-04-10 03:07:00,
2013-04-09 23:12:00,45.3,44.0,29.93,SE,142,1.8,23.0,95,0.39,RA,,0.69,WeatherDisplay:10.37,2013-04-10 03:12:00,
2013-04-09 23:17:00,45.5,44.2,29.93,SSE,160,0.0,23.0,95,0.33,RA,,0.69,WeatherDisplay:10.37,2013-04-10 03:17:00,
2013-04-09 23:22:00,45.6,44.3,29.92,East,85,2.1,23.0,95,0.30,RA,,0.70,WeatherDisplay:10.37,2013-04-10 03:22:00,
2013-04-09 23:27:00,45.6,44.3,29.91,ESE,110,1.8,23.0,95,0.26,RA,,0.70,WeatherDisplay:10.37,2013-04-10 03:27:00,
2013-04-09 23:32:00,45.7,44.1,29.92,East,101,0.9,23.0,94,0.23,,,0.70,WeatherDisplay:10.37,2013-04-10 03:32:00,
2013-04-09 23:37:00,45.7,44.1,29.92,ENE,71,0.8,23.0,94,0.21,,,0.70,WeatherDisplay:10.37,2013-04-10 03:37:00,
2013-04-09 23:42:00,45.8,44.2,29.93,South,179,0.0,23.0,94,0.19,,,0.70,WeatherDisplay:10.37,2013-04-10 03:42:00,
2013-04-09 23:47:00,45.8,44.2,29.94,SSE,150,0.0,23.0,94,0.15,,,0.70,WeatherDisplay:10.37,2013-04-10 03:47:00,
2013-04-09 23:52:00,45.9,44.3,29.94,SSE,150,0.0,0.0,94,0.11,RA,,0.70,WeatherDisplay:10.37,2013-04-10 03:52:00,
2013-04-09 23:57:00,45.9,44.5,29.94,SSE,153,0.0,1.2,95,0.08,RA,,0.70,WeatherDisplay:10.37,2013-04-10 03:57:00,